Baqubah, Iraq
Current Conditions -  °F | °C
As of 11:30 AM on Friday 24 Oct 2014 (Local Time) from ORBI Reporting Station
Sand / Dust Storm Sand / Dust Storm  
Wind Chill: 82°   Ceiling: Unl
Heat Index: 82°   Visibility: 4mi
Dew Point: 48°   Wind: 6mph
Humidity: 30%   Direction: 60°ENE
Pressure: 30"   Gusts: NA
Location:  33.75°N, 44.64°E
Report Text: ORBI 240830Z 06005KT 030V090 6000 DU NSC 28/09 Q1016
Loading
Personal Weather Stations






























Interactive Weather Map
Tropical Storm Tracking
New forecast layout! Learn more

10-Day Weather Forecast

Advertisements
Track Severe Weather on mobile